sensor_id;sensor_type;location;lat;lon;timestamp;P1;durP1;ratioP1;P2;durP2;ratioP2
78908;SDS011;68298;37.368;127.108;2023-05-24T00:01:48;2.38;;;2.03;;
78908;SDS011;68298;37.368;127.108;2023-05-24T00:04:37;3.88;;;2.13;;
78908;SDS011;68298;37.368;127.108;2023-05-24T00:07:08;2.85;;;2.15;;
78908;SDS011;68298;37.368;127.108;2023-05-24T00:09:39;3.15;;;2.00;;
78908;SDS011;68298;37.368;127.108;2023-05-24T00:12:09;2.53;;;2.15;;
78908;SDS011;68298;37.368;127.108;2023-05-24T00:14:40;3.47;;;2.40;;
78908;SDS011;68298;37.368;127.108;2023-05-24T00:17:10;3.28;;;1.88;;
78908;SDS011;68298;37.368;127.108;2023-05-24T00:19:41;3.10;;;2.30;;
78908;SDS011;68298;37.368;127.108;2023-05-24T00:22:11;5.32;;;2.67;;
78908;SDS011;68298;37.368;127.108;2023-05-24T00:24:42;5.63;;;3.10;;
78908;SDS011;68298;37.368;127.108;2023-05-24T00:27:13;5.82;;;2.60;;
78908;SDS011;68298;37.368;127.108;2023-05-24T00:29:43;4.72;;;2.45;;
78908;SDS011;68298;37.368;127.108;2023-05-24T00:32:14;5.82;;;2.55;;
78908;SDS011;68298;37.368;127.108;2023-05-24T00:34:47;5.55;;;2.53;;
78908;SDS011;68298;37.368;127.108;2023-05-24T00:37:20;4.90;;;2.13;;
78908;SDS011;68298;37.368;127.108;2023-05-24T00:39:51;6.15;;;2.20;;
78908;SDS011;68298;37.368;127.108;2023-05-24T00:42:22;7.93;;;2.70;;
78908;SDS011;68298;37.368;127.108;2023-05-24T00:44:52;5.30;;;2.42;;
78908;SDS011;68298;37.368;127.108;2023-05-24T00:47:23;5.35;;;2.53;;
78908;SDS011;68298;37.368;127.108;2023-05-24T00:49:54;10.02;;;3.10;;
78908;SDS011;68298;37.368;127.108;2023-05-24T00:52:25;10.60;;;2.90;;
78908;SDS011;68298;37.368;127.108;2023-05-24T00:54:55;10.63;;;2.90;;
78908;SDS011;68298;37.368;127.108;2023-05-24T00:57:26;8.63;;;3.22;;
78908;SDS011;68298;37.368;127.108;2023-05-24T00:59:58;7.05;;;2.60;;
78908;SDS011;68298;37.368;127.108;2023-05-24T01:02:29;7.18;;;3.30;;
78908;SDS011;68298;37.368;127.108;2023-05-24T01:05:00;8.20;;;2.70;;
78908;SDS011;68298;37.368;127.108;2023-05-24T01:13:03;8.68;;;3.10;;
78908;SDS011;68298;37.368;127.108;2023-05-24T01:15:58;8.75;;;3.08;;
78908;SDS011;68298;37.368;127.108;2023-05-24T01:18:35;11.20;;;3.03;;
78908;SDS011;68298;37.368;127.108;2023-05-24T01:26:39;58.65;;;5.40;;
78908;SDS011;68298;37.368;127.108;2023-05-24T01:29:11;22.08;;;4.60;;
78908;SDS011;68298;37.368;127.108;2023-05-24T01:31:43;14.27;;;4.23;;
78908;SDS011;68298;37.368;127.108;2023-05-24T01:34:16;12.90;;;5.13;;
78908;SDS011;68298;37.368;127.108;2023-05-24T01:36:47;21.23;;;5.03;;
78908;SDS011;68298;37.368;127.108;2023-05-24T01:39:18;10.98;;;4.07;;
78908;SDS011;68298;37.368;127.108;2023-05-24T01:41:58;9.80;;;3.78;;
78908;SDS011;68298;37.368;127.108;2023-05-24T01:50:44;9.48;;;3.80;;
78908;SDS011;68298;37.368;127.108;2023-05-24T01:53:23;11.50;;;3.67;;
78908;SDS011;68298;37.368;127.108;2023-05-24T01:56:01;10.90;;;3.15;;
78908;SDS011;68298;37.368;127.108;2023-05-24T01:58:34;7.60;;;3.00;;
78908;SDS011;68298;37.368;127.108;2023-05-24T02:01:07;5.22;;;2.83;;
78908;SDS011;68298;37.368;127.108;2023-05-24T02:03:39;4.40;;;2.50;;
78908;SDS011;68298;37.368;127.108;2023-05-24T02:06:09;4.57;;;2.92;;
78908;SDS011;68298;37.368;127.108;2023-05-24T02:08:40;4.20;;;2.63;;
78908;SDS011;68298;37.368;127.108;2023-05-24T02:11:10;5.50;;;2.80;;
78908;SDS011;68298;37.368;127.108;2023-05-24T02:13:41;2.72;;;2.00;;
78908;SDS011;68298;37.368;127.108;2023-05-24T02:16:11;3.47;;;2.47;;
78908;SDS011;68298;37.368;127.108;2023-05-24T02:19:00;2.30;;;2.10;;
78908;SDS011;68298;37.368;127.108;2023-05-24T02:21:48;3.28;;;2.10;;
78908;SDS011;68298;37.368;127.108;2023-05-24T02:24:19;2.22;;;1.90;;
78908;SDS011;68298;37.368;127.108;2023-05-24T02:26:50;3.40;;;2.17;;
78908;SDS011;68298;37.368;127.108;2023-05-24T02:29:21;2.78;;;1.83;;
78908;SDS011;68298;37.368;127.108;2023-05-24T02:31:51;1.67;;;1.58;;
78908;SDS011;68298;37.368;127.108;2023-05-24T02:34:24;1.92;;;1.70;;
78908;SDS011;68298;37.368;127.108;2023-05-24T02:36:55;1.48;;;1.38;;
78908;SDS011;68298;37.368;127.108;2023-05-24T02:39:25;2.72;;;1.80;;
78908;SDS011;68298;37.368;127.108;2023-05-24T02:41:56;2.80;;;1.70;;
78908;SDS011;68298;37.368;127.108;2023-05-24T02:44:27;1.98;;;1.50;;
78908;SDS011;68298;37.368;127.108;2023-05-24T02:46:57;1.45;;;1.30;;
78908;SDS011;68298;37.368;127.108;2023-05-24T02:49:28;2.15;;;1.70;;
78908;SDS011;68298;37.368;127.108;2023-05-24T02:51:58;2.53;;;1.30;;
78908;SDS011;68298;37.368;127.108;2023-05-24T02:54:29;1.50;;;1.40;;
78908;SDS011;68298;37.368;127.108;2023-05-24T02:56:59;2.00;;;1.50;;
78908;SDS011;68298;37.368;127.108;2023-05-24T02:59:32;2.40;;;1.70;;
78908;SDS011;68298;37.368;127.108;2023-05-24T03:02:02;1.42;;;1.33;;
78908;SDS011;68298;37.368;127.108;2023-05-24T03:04:33;1.60;;;1.50;;
78908;SDS011;68298;37.368;127.108;2023-05-24T03:07:04;1.50;;;1.40;;
78908;SDS011;68298;37.368;127.108;2023-05-24T03:09:35;1.45;;;1.35;;
78908;SDS011;68298;37.368;127.108;2023-05-24T03:12:23;2.63;;;1.30;;
78908;SDS011;68298;37.368;127.108;2023-05-24T03:14:54;2.83;;;1.50;;
78908;SDS011;68298;37.368;127.108;2023-05-24T03:17:25;2.85;;;1.60;;
78908;SDS011;68298;37.368;127.108;2023-05-24T03:19:55;2.10;;;1.25;;
78908;SDS011;68298;37.368;127.108;2023-05-24T03:22:44;1.48;;;1.38;;
78908;SDS011;68298;37.368;127.108;2023-05-24T03:25:14;1.77;;;1.42;;
78908;SDS011;68298;37.368;127.108;2023-05-24T03:27:45;1.83;;;1.60;;
78908;SDS011;68298;37.368;127.108;2023-05-24T03:30:17;1.48;;;1.38;;
78908;SDS011;68298;37.368;127.108;2023-05-24T03:32:52;2.25;;;1.27;;
78908;SDS011;68298;37.368;127.108;2023-05-24T03:35:23;1.60;;;1.33;;
78908;SDS011;68298;37.368;127.108;2023-05-24T03:37:55;1.20;;;1.10;;
78908;SDS011;68298;37.368;127.108;2023-05-24T03:40:27;1.33;;;1.23;;
78908;SDS011;68298;37.368;127.108;2023-05-24T03:43:12;1.33;;;1.15;;
78908;SDS011;68298;37.368;127.108;2023-05-24T03:45:49;1.30;;;1.20;;
78908;SDS011;68298;37.368;127.108;2023-05-24T03:48:20;1.38;;;1.27;;
78908;SDS011;68298;37.368;127.108;2023-05-24T03:50:51;1.40;;;1.30;;
78908;SDS011;68298;37.368;127.108;2023-05-24T03:53:21;1.92;;;1.73;;
78908;SDS011;68298;37.368;127.108;2023-05-24T03:55:53;2.10;;;1.90;;
78908;SDS011;68298;37.368;127.108;2023-05-24T03:58:24;4.25;;;1.98;;
78908;SDS011;68298;37.368;127.108;2023-05-24T04:00:54;3.78;;;2.10;;
78908;SDS011;68298;37.368;127.108;2023-05-24T04:03:25;3.13;;;2.83;;
78908;SDS011;68298;37.368;127.108;2023-05-24T04:05:56;5.30;;;2.97;;
78908;SDS011;68298;37.368;127.108;2023-05-24T04:08:27;70.03;;;7.13;;
78908;SDS011;68298;37.368;127.108;2023-05-24T04:10:57;41.95;;;6.93;;
78908;SDS011;68298;37.368;127.108;2023-05-24T04:13:28;46.28;;;7.15;;
78908;SDS011;68298;37.368;127.108;2023-05-24T04:15:58;51.25;;;7.88;;
78908;SDS011;68298;37.368;127.108;2023-05-24T04:18:29;61.72;;;9.15;;
78908;SDS011;68298;37.368;127.108;2023-05-24T04:21:00;71.38;;;8.85;;
78908;SDS011;68298;37.368;127.108;2023-05-24T04:23:31;60.63;;;8.98;;
78908;SDS011;68298;37.368;127.108;2023-05-24T04:26:01;95.45;;;9.75;;
78908;SDS011;68298;37.368;127.108;2023-05-24T04:28:32;58.42;;;9.40;;
78908;SDS011;68298;37.368;127.108;2023-05-24T04:31:06;46.27;;;7.73;;
78908;SDS011;68298;37.368;127.108;2023-05-24T04:33:39;29.27;;;7.10;;
78908;SDS011;68298;37.368;127.108;2023-05-24T04:36:09;32.13;;;7.38;;
78908;SDS011;68298;37.368;127.108;2023-05-24T04:38:41;15.45;;;6.50;;
78908;SDS011;68298;37.368;127.108;2023-05-24T04:41:13;14.10;;;6.13;;
78908;SDS011;68298;37.368;127.108;2023-05-24T04:43:44;28.38;;;6.85;;
78908;SDS011;68298;37.368;127.108;2023-05-24T04:46:14;18.13;;;6.50;;
78908;SDS011;68298;37.368;127.108;2023-05-24T04:48:45;76.25;;;9.55;;
78908;SDS011;68298;37.368;127.108;2023-05-24T04:51:16;29.00;;;7.22;;
78908;SDS011;68298;37.368;127.108;2023-05-24T04:53:47;26.70;;;7.75;;
78908;SDS011;68298;37.368;127.108;2023-05-24T04:56:17;15.02;;;6.32;;
78908;SDS011;68298;37.368;127.108;2023-05-24T04:58:48;15.35;;;6.50;;
78908;SDS011;68298;37.368;127.108;2023-05-24T05:01:18;40.03;;;7.80;;
78908;SDS011;68298;37.368;127.108;2023-05-24T05:03:49;27.77;;;6.55;;
78908;SDS011;68298;37.368;127.108;2023-05-24T05:06:20;20.27;;;6.72;;
78908;SDS011;68298;37.368;127.108;2023-05-24T05:08:51;18.33;;;6.78;;
78908;SDS011;68298;37.368;127.108;2023-05-24T05:11:21;14.68;;;5.85;;
78908;SDS011;68298;37.368;127.108;2023-05-24T05:13:52;10.68;;;5.90;;
78908;SDS011;68298;37.368;127.108;2023-05-24T05:16:22;15.48;;;6.20;;
78908;SDS011;68298;37.368;127.108;2023-05-24T05:18:53;22.13;;;6.32;;
78908;SDS011;68298;37.368;127.108;2023-05-24T05:21:24;13.55;;;5.70;;
78908;SDS011;68298;37.368;127.108;2023-05-24T05:23:54;86.78;;;9.18;;
78908;SDS011;68298;37.368;127.108;2023-05-24T05:26:28;50.42;;;8.18;;
78908;SDS011;68298;37.368;127.108;2023-05-24T05:28:59;46.90;;;6.95;;
78908;SDS011;68298;37.368;127.108;2023-05-24T05:31:29;39.88;;;6.38;;
78908;SDS011;68298;37.368;127.108;2023-05-24T05:34:00;35.40;;;6.93;;
78908;SDS011;68298;37.368;127.108;2023-05-24T05:36:30;192.75;;;11.50;;
78908;SDS011;68298;37.368;127.108;2023-05-24T05:39:01;24.52;;;6.28;;
78908;SDS011;68298;37.368;127.108;2023-05-24T05:41:31;87.82;;;8.98;;
78908;SDS011;68298;37.368;127.108;2023-05-24T05:44:01;177.10;;;13.30;;
78908;SDS011;68298;37.368;127.108;2023-05-24T05:46:32;119.10;;;12.00;;
78908;SDS011;68298;37.368;127.108;2023-05-24T05:49:03;117.10;;;10.65;;
78908;SDS011;68298;37.368;127.108;2023-05-24T05:51:35;90.45;;;9.52;;
78908;SDS011;68298;37.368;127.108;2023-05-24T05:54:07;389.93;;;25.80;;
78908;SDS011;68298;37.368;127.108;2023-05-24T05:56:42;159.82;;;12.50;;
78908;SDS011;68298;37.368;127.108;2023-05-24T05:59:15;27.25;;;7.38;;
78908;SDS011;68298;37.368;127.108;2023-05-24T06:01:47;22.92;;;6.40;;
78908;SDS011;68298;37.368;127.108;2023-05-24T06:04:18;37.47;;;6.63;;
78908;SDS011;68298;37.368;127.108;2023-05-24T06:06:49;18.67;;;5.93;;
78908;SDS011;68298;37.368;127.108;2023-05-24T06:09:20;20.75;;;6.60;;
78908;SDS011;68298;37.368;127.108;2023-05-24T06:11:50;20.65;;;5.82;;
78908;SDS011;68298;37.368;127.108;2023-05-24T06:14:21;13.25;;;5.20;;
78908;SDS011;68298;37.368;127.108;2023-05-24T06:16:53;13.93;;;5.13;;
78908;SDS011;68298;37.368;127.108;2023-05-24T06:19:26;12.57;;;4.72;;
78908;SDS011;68298;37.368;127.108;2023-05-24T06:21:57;16.77;;;5.05;;
78908;SDS011;68298;37.368;127.108;2023-05-24T06:24:28;14.95;;;5.20;;
78908;SDS011;68298;37.368;127.108;2023-05-24T06:26:59;15.50;;;5.18;;
78908;SDS011;68298;37.368;127.108;2023-05-24T06:29:32;13.30;;;5.18;;
78908;SDS011;68298;37.368;127.108;2023-05-24T06:32:02;17.63;;;5.53;;
78908;SDS011;68298;37.368;127.108;2023-05-24T06:34:33;10.82;;;6.22;;
78908;SDS011;68298;37.368;127.108;2023-05-24T06:37:04;15.00;;;6.00;;
78908;SDS011;68298;37.368;127.108;2023-05-24T06:39:38;10.02;;;6.75;;
78908;SDS011;68298;37.368;127.108;2023-05-24T06:42:09;15.23;;;6.22;;
78908;SDS011;68298;37.368;127.108;2023-05-24T06:44:44;11.57;;;6.95;;
78908;SDS011;68298;37.368;127.108;2023-05-24T06:47:14;24.25;;;7.15;;
78908;SDS011;68298;37.368;127.108;2023-05-24T06:49:45;16.48;;;6.40;;
78908;SDS011;68298;37.368;127.108;2023-05-24T06:52:16;15.15;;;6.40;;
78908;SDS011;68298;37.368;127.108;2023-05-24T06:54:48;18.30;;;5.82;;
78908;SDS011;68298;37.368;127.108;2023-05-24T06:57:18;14.60;;;5.37;;
78908;SDS011;68298;37.368;127.108;2023-05-24T06:59:49;17.92;;;5.50;;
78908;SDS011;68298;37.368;127.108;2023-05-24T07:02:20;16.92;;;5.85;;
78908;SDS011;68298;37.368;127.108;2023-05-24T07:04:54;14.57;;;5.60;;
78908;SDS011;68298;37.368;127.108;2023-05-24T07:07:25;13.95;;;4.88;;
78908;SDS011;68298;37.368;127.108;2023-05-24T07:09:55;8.07;;;4.93;;
78908;SDS011;68298;37.368;127.108;2023-05-24T07:12:26;11.27;;;4.50;;
78908;SDS011;68298;37.368;127.108;2023-05-24T07:14:56;11.68;;;4.78;;
78908;SDS011;68298;37.368;127.108;2023-05-24T07:17:27;11.05;;;4.47;;
78908;SDS011;68298;37.368;127.108;2023-05-24T07:19:58;11.82;;;4.88;;
78908;SDS011;68298;37.368;127.108;2023-05-24T07:24:59;12.65;;;5.20;;
78908;SDS011;68298;37.368;127.108;2023-05-24T07:27:30;9.10;;;5.32;;
78908;SDS011;68298;37.368;127.108;2023-05-24T07:30:01;11.00;;;4.65;;
78908;SDS011;68298;37.368;127.108;2023-05-24T07:32:43;8.68;;;5.10;;
78908;SDS011;68298;37.368;127.108;2023-05-24T07:35:14;7.55;;;4.40;;
78908;SDS011;68298;37.368;127.108;2023-05-24T07:37:44;8.32;;;4.47;;
78908;SDS011;68298;37.368;127.108;2023-05-24T07:40:15;9.15;;;4.50;;
78908;SDS011;68298;37.368;127.108;2023-05-24T07:42:46;10.15;;;4.68;;
78908;SDS011;68298;37.368;127.108;2023-05-24T07:45:17;9.70;;;5.00;;
78908;SDS011;68298;37.368;127.108;2023-05-24T07:47:47;8.75;;;4.55;;
78908;SDS011;68298;37.368;127.108;2023-05-24T07:50:20;7.55;;;4.68;;
78908;SDS011;68298;37.368;127.108;2023-05-24T07:52:51;11.07;;;4.70;;
78908;SDS011;68298;37.368;127.108;2023-05-24T07:55:22;8.05;;;4.80;;
78908;SDS011;68298;37.368;127.108;2023-05-24T07:57:53;10.60;;;4.82;;
78908;SDS011;68298;37.368;127.108;2023-05-24T08:00:24;8.67;;;4.50;;
78908;SDS011;68298;37.368;127.108;2023-05-24T08:02:55;9.27;;;4.80;;
78908;SDS011;68298;37.368;127.108;2023-05-24T08:05:26;12.32;;;4.63;;
78908;SDS011;68298;37.368;127.108;2023-05-24T08:07:56;8.43;;;4.35;;
78908;SDS011;68298;37.368;127.108;2023-05-24T08:10:27;6.80;;;4.38;;
78908;SDS011;68298;37.368;127.108;2023-05-24T08:12:58;8.00;;;4.65;;
78908;SDS011;68298;37.368;127.108;2023-05-24T08:15:28;8.73;;;4.93;;
78908;SDS011;68298;37.368;127.108;2023-05-24T08:17:59;5.43;;;4.38;;
78908;SDS011;68298;37.368;127.108;2023-05-24T08:20:29;8.88;;;4.68;;
78908;SDS011;68298;37.368;127.108;2023-05-24T08:23:22;6.35;;;4.43;;
78908;SDS011;68298;37.368;127.108;2023-05-24T08:25:52;7.95;;;4.30;;
78908;SDS011;68298;37.368;127.108;2023-05-24T08:28:23;6.43;;;4.38;;
78908;SDS011;68298;37.368;127.108;2023-05-24T08:30:53;9.18;;;5.00;;
78908;SDS011;68298;37.368;127.108;2023-05-24T08:33:25;7.15;;;4.53;;
78908;SDS011;68298;37.368;127.108;2023-05-24T08:35:57;8.07;;;4.97;;
78908;SDS011;68298;37.368;127.108;2023-05-24T08:38:27;7.38;;;4.82;;
78908;SDS011;68298;37.368;127.108;2023-05-24T08:40:57;7.85;;;4.50;;
78908;SDS011;68298;37.368;127.108;2023-05-24T08:43:28;7.07;;;4.30;;
78908;SDS011;68298;37.368;127.108;2023-05-24T08:45:59;8.13;;;4.90;;
78908;SDS011;68298;37.368;127.108;2023-05-24T08:48:49;6.60;;;4.35;;
78908;SDS011;68298;37.368;127.108;2023-05-24T08:51:21;7.50;;;4.90;;
78908;SDS011;68298;37.368;127.108;2023-05-24T08:53:52;9.30;;;4.43;;
78908;SDS011;68298;37.368;127.108;2023-05-24T08:56:24;5.63;;;4.20;;
78908;SDS011;68298;37.368;127.108;2023-05-24T08:58:56;7.05;;;4.38;;
78908;SDS011;68298;37.368;127.108;2023-05-24T09:01:27;6.38;;;4.93;;
78908;SDS011;68298;37.368;127.108;2023-05-24T09:04:02;8.32;;;4.78;;
78908;SDS011;68298;37.368;127.108;2023-05-24T09:06:34;6.15;;;4.72;;
78908;SDS011;68298;37.368;127.108;2023-05-24T09:09:05;6.50;;;4.53;;
78908;SDS011;68298;37.368;127.108;2023-05-24T09:11:37;7.30;;;5.00;;
78908;SDS011;68298;37.368;127.108;2023-05-24T09:14:12;7.72;;;4.45;;
78908;SDS011;68298;37.368;127.108;2023-05-24T09:16:42;6.93;;;4.32;;
78908;SDS011;68298;37.368;127.108;2023-05-24T09:19:13;5.95;;;4.30;;
78908;SDS011;68298;37.368;127.108;2023-05-24T09:21:45;7.72;;;4.28;;
78908;SDS011;68298;37.368;127.108;2023-05-24T09:24:17;10.43;;;4.60;;
78908;SDS011;68298;37.368;127.108;2023-05-24T09:26:48;7.22;;;4.60;;
78908;SDS011;68298;37.368;127.108;2023-05-24T09:29:22;6.75;;;4.30;;
78908;SDS011;68298;37.368;127.108;2023-05-24T09:31:53;7.03;;;4.88;;
78908;SDS011;68298;37.368;127.108;2023-05-24T09:34:25;6.22;;;4.55;;
78908;SDS011;68298;37.368;127.108;2023-05-24T09:36:56;6.25;;;4.82;;
78908;SDS011;68298;37.368;127.108;2023-05-24T09:39:26;8.32;;;4.82;;
78908;SDS011;68298;37.368;127.108;2023-05-24T09:41:57;9.98;;;4.75;;
78908;SDS011;68298;37.368;127.108;2023-05-24T09:44:27;5.93;;;4.72;;
78908;SDS011;68298;37.368;127.108;2023-05-24T09:47:01;5.85;;;4.57;;
78908;SDS011;68298;37.368;127.108;2023-05-24T09:49:36;7.05;;;4.70;;
78908;SDS011;68298;37.368;127.108;2023-05-24T09:52:06;5.93;;;4.25;;
78908;SDS011;68298;37.368;127.108;2023-05-24T09:54:37;6.68;;;4.45;;
78908;SDS011;68298;37.368;127.108;2023-05-24T09:57:09;5.88;;;4.35;;
78908;SDS011;68298;37.368;127.108;2023-05-24T09:59:40;6.68;;;4.53;;
78908;SDS011;68298;37.368;127.108;2023-05-24T10:02:12;5.60;;;4.30;;
78908;SDS011;68298;37.368;127.108;2023-05-24T10:04:44;8.32;;;4.07;;
78908;SDS011;68298;37.368;127.108;2023-05-24T10:07:15;7.60;;;4.45;;
78908;SDS011;68298;37.368;127.108;2023-05-24T10:09:46;5.35;;;4.25;;
78908;SDS011;68298;37.368;127.108;2023-05-24T10:12:18;5.95;;;4.70;;
78908;SDS011;68298;37.368;127.108;2023-05-24T10:14:51;5.10;;;4.30;;
78908;SDS011;68298;37.368;127.108;2023-05-24T10:17:25;6.18;;;4.53;;
78908;SDS011;68298;37.368;127.108;2023-05-24T10:19:56;5.47;;;4.38;;
78908;SDS011;68298;37.368;127.108;2023-05-24T10:22:27;6.82;;;4.68;;
78908;SDS011;68298;37.368;127.108;2023-05-24T10:24:58;6.10;;;4.38;;
78908;SDS011;68298;37.368;127.108;2023-05-24T10:27:29;6.35;;;4.80;;
78908;SDS011;68298;37.368;127.108;2023-05-24T10:32:50;6.28;;;4.38;;
78908;SDS011;68298;37.368;127.108;2023-05-24T10:35:22;5.82;;;4.55;;
78908;SDS011;68298;37.368;127.108;2023-05-24T10:37:55;7.65;;;4.70;;
78908;SDS011;68298;37.368;127.108;2023-05-24T10:40:26;7.13;;;5.13;;
78908;SDS011;68298;37.368;127.108;2023-05-24T10:42:56;6.38;;;4.53;;
78908;SDS011;68298;37.368;127.108;2023-05-24T10:48:30;5.35;;;4.32;;
78908;SDS011;68298;37.368;127.108;2023-05-24T10:51:00;6.40;;;4.65;;
78908;SDS011;68298;37.368;127.108;2023-05-24T10:53:50;5.97;;;4.53;;
78908;SDS011;68298;37.368;127.108;2023-05-24T10:56:20;4.97;;;4.05;;
78908;SDS011;68298;37.368;127.108;2023-05-24T11:01:28;7.28;;;4.70;;
78908;SDS011;68298;37.368;127.108;2023-05-24T11:04:10;7.03;;;4.40;;
78908;SDS011;68298;37.368;127.108;2023-05-24T11:06:48;6.07;;;4.60;;
78908;SDS011;68298;37.368;127.108;2023-05-24T11:09:46;6.10;;;4.72;;
78908;SDS011;68298;37.368;127.108;2023-05-24T11:12:24;6.53;;;4.25;;
78908;SDS011;68298;37.368;127.108;2023-05-24T11:15:09;5.43;;;4.20;;
78908;SDS011;68298;37.368;127.108;2023-05-24T11:20:58;7.05;;;4.63;;
78908;SDS011;68298;37.368;127.108;2023-05-24T11:23:31;5.40;;;4.40;;
78908;SDS011;68298;37.368;127.108;2023-05-24T11:26:05;5.53;;;4.72;;
78908;SDS011;68298;37.368;127.108;2023-05-24T11:28:35;6.57;;;4.88;;
78908;SDS011;68298;37.368;127.108;2023-05-24T11:31:07;6.47;;;5.10;;
78908;SDS011;68298;37.368;127.108;2023-05-24T11:33:39;8.05;;;4.95;;
78908;SDS011;68298;37.368;127.108;2023-05-24T11:36:10;6.00;;;4.20;;
78908;SDS011;68298;37.368;127.108;2023-05-24T11:38:41;4.93;;;4.05;;
78908;SDS011;68298;37.368;127.108;2023-05-24T11:41:11;6.13;;;4.50;;
78908;SDS011;68298;37.368;127.108;2023-05-24T11:43:43;6.68;;;4.35;;
78908;SDS011;68298;37.368;127.108;2023-05-24T11:46:14;8.93;;;4.95;;
78908;SDS011;68298;37.368;127.108;2023-05-24T11:48:58;7.18;;;4.63;;
78908;SDS011;68298;37.368;127.108;2023-05-24T11:51:29;5.38;;;4.40;;
78908;SDS011;68298;37.368;127.108;2023-05-24T11:54:01;5.00;;;4.38;;
78908;SDS011;68298;37.368;127.108;2023-05-24T11:56:31;6.63;;;4.50;;
78908;SDS011;68298;37.368;127.108;2023-05-24T11:59:08;5.18;;;4.50;;
78908;SDS011;68298;37.368;127.108;2023-05-24T12:01:44;5.38;;;4.40;;
78908;SDS011;68298;37.368;127.108;2023-05-24T12:04:15;6.25;;;4.30;;
78908;SDS011;68298;37.368;127.108;2023-05-24T12:06:45;7.80;;;4.53;;
78908;SDS011;68298;37.368;127.108;2023-05-24T12:09:16;5.38;;;4.55;;
78908;SDS011;68298;37.368;127.108;2023-05-24T12:11:47;7.20;;;4.65;;
78908;SDS011;68298;37.368;127.108;2023-05-24T12:16:54;5.60;;;4.15;;
78908;SDS011;68298;37.368;127.108;2023-05-24T12:19:28;6.35;;;4.50;;
78908;SDS011;68298;37.368;127.108;2023-05-24T12:22:04;7.25;;;4.90;;
78908;SDS011;68298;37.368;127.108;2023-05-24T12:24:36;7.60;;;4.72;;
78908;SDS011;68298;37.368;127.108;2023-05-24T12:27:06;7.55;;;4.40;;
78908;SDS011;68298;37.368;127.108;2023-05-24T12:29:38;5.97;;;4.10;;
78908;SDS011;68298;37.368;127.108;2023-05-24T12:32:10;7.18;;;5.13;;
78908;SDS011;68298;37.368;127.108;2023-05-24T12:34:42;6.50;;;4.32;;
78908;SDS011;68298;37.368;127.108;2023-05-24T12:37:13;6.53;;;4.60;;
78908;SDS011;68298;37.368;127.108;2023-05-24T12:39:44;6.07;;;4.45;;
78908;SDS011;68298;37.368;127.108;2023-05-24T12:42:14;6.43;;;4.63;;
78908;SDS011;68298;37.368;127.108;2023-05-24T12:45:03;7.45;;;4.65;;
78908;SDS011;68298;37.368;127.108;2023-05-24T12:47:34;5.22;;;4.32;;
78908;SDS011;68298;37.368;127.108;2023-05-24T12:50:05;5.85;;;4.70;;
78908;SDS011;68298;37.368;127.108;2023-05-24T12:52:36;7.20;;;4.50;;
78908;SDS011;68298;37.368;127.108;2023-05-24T12:55:06;6.82;;;4.53;;
78908;SDS011;68298;37.368;127.108;2023-05-24T12:57:37;6.00;;;4.63;;
78908;SDS011;68298;37.368;127.108;2023-05-24T13:00:09;6.75;;;4.70;;
78908;SDS011;68298;37.368;127.108;2023-05-24T13:02:41;6.20;;;4.88;;
78908;SDS011;68298;37.368;127.108;2023-05-24T13:05:11;5.68;;;4.05;;
78908;SDS011;68298;37.368;127.108;2023-05-24T13:07:42;6.53;;;4.43;;
78908;SDS011;68298;37.368;127.108;2023-05-24T13:10:13;7.57;;;5.17;;
78908;SDS011;68298;37.368;127.108;2023-05-24T13:12:44;6.32;;;4.50;;
78908;SDS011;68298;37.368;127.108;2023-05-24T13:15:15;5.97;;;3.95;;
78908;SDS011;68298;37.368;127.108;2023-05-24T13:17:47;6.43;;;5.10;;
78908;SDS011;68298;37.368;127.108;2023-05-24T13:20:18;7.00;;;4.65;;
78908;SDS011;68298;37.368;127.108;2023-05-24T13:22:50;6.47;;;4.88;;
78908;SDS011;68298;37.368;127.108;2023-05-24T13:25:21;5.57;;;4.28;;
78908;SDS011;68298;37.368;127.108;2023-05-24T13:27:52;5.97;;;5.05;;
78908;SDS011;68298;37.368;127.108;2023-05-24T13:30:22;5.13;;;4.13;;
78908;SDS011;68298;37.368;127.108;2023-05-24T13:32:55;7.80;;;4.60;;
78908;SDS011;68298;37.368;127.108;2023-05-24T13:35:28;5.60;;;4.38;;
78908;SDS011;68298;37.368;127.108;2023-05-24T13:37:59;5.90;;;4.20;;
78908;SDS011;68298;37.368;127.108;2023-05-24T13:40:29;7.55;;;5.15;;
78908;SDS011;68298;37.368;127.108;2023-05-24T13:43:00;5.20;;;4.18;;
78908;SDS011;68298;37.368;127.108;2023-05-24T13:45:31;6.20;;;4.30;;
78908;SDS011;68298;37.368;127.108;2023-05-24T13:48:02;5.32;;;4.00;;
78908;SDS011;68298;37.368;127.108;2023-05-24T13:50:33;6.63;;;4.55;;
78908;SDS011;68298;37.368;127.108;2023-05-24T13:53:05;5.15;;;4.40;;
78908;SDS011;68298;37.368;127.108;2023-05-24T13:55:36;6.80;;;4.70;;
78908;SDS011;68298;37.368;127.108;2023-05-24T13:58:07;6.90;;;4.45;;
78908;SDS011;68298;37.368;127.108;2023-05-24T14:00:38;6.78;;;4.65;;
78908;SDS011;68298;37.368;127.108;2023-05-24T14:03:10;5.72;;;4.47;;
78908;SDS011;68298;37.368;127.108;2023-05-24T14:05:42;4.97;;;3.97;;
78908;SDS011;68298;37.368;127.108;2023-05-24T14:08:13;4.70;;;4.20;;
78908;SDS011;68298;37.368;127.108;2023-05-24T14:10:43;5.10;;;3.95;;
78908;SDS011;68298;37.368;127.108;2023-05-24T14:13:17;5.30;;;4.20;;
78908;SDS011;68298;37.368;127.108;2023-05-24T14:16:08;5.30;;;4.20;;
78908;SDS011;68298;37.368;127.108;2023-05-24T14:18:39;5.00;;;4.15;;
78908;SDS011;68298;37.368;127.108;2023-05-24T14:21:11;5.43;;;4.22;;
78908;SDS011;68298;37.368;127.108;2023-05-24T14:23:59;5.68;;;4.20;;
78908;SDS011;68298;37.368;127.108;2023-05-24T14:26:30;6.20;;;4.55;;
78908;SDS011;68298;37.368;127.108;2023-05-24T14:29:00;7.60;;;4.50;;
78908;SDS011;68298;37.368;127.108;2023-05-24T14:31:31;5.72;;;4.60;;
78908;SDS011;68298;37.368;127.108;2023-05-24T14:34:03;6.13;;;4.50;;
78908;SDS011;68298;37.368;127.108;2023-05-24T14:36:34;7.35;;;4.82;;
78908;SDS011;68298;37.368;127.108;2023-05-24T14:41:36;6.13;;;3.90;;
78908;SDS011;68298;37.368;127.108;2023-05-24T14:44:06;5.35;;;4.35;;
78908;SDS011;68298;37.368;127.108;2023-05-24T14:46:38;6.50;;;4.50;;
78908;SDS011;68298;37.368;127.108;2023-05-24T14:49:09;5.78;;;4.60;;
78908;SDS011;68298;37.368;127.108;2023-05-24T14:51:40;5.78;;;4.57;;
78908;SDS011;68298;37.368;127.108;2023-05-24T14:54:10;6.97;;;4.68;;
78908;SDS011;68298;37.368;127.108;2023-05-24T14:56:41;7.30;;;4.22;;
78908;SDS011;68298;37.368;127.108;2023-05-24T14:59:11;5.43;;;4.40;;
78908;SDS011;68298;37.368;127.108;2023-05-24T15:01:42;6.22;;;4.75;;
78908;SDS011;68298;37.368;127.108;2023-05-24T15:04:13;7.82;;;4.75;;
78908;SDS011;68298;37.368;127.108;2023-05-24T15:06:43;6.32;;;4.80;;
78908;SDS011;68298;37.368;127.108;2023-05-24T15:09:14;7.45;;;4.45;;
78908;SDS011;68298;37.368;127.108;2023-05-24T15:11:44;7.53;;;4.57;;
78908;SDS011;68298;37.368;127.108;2023-05-24T15:14:15;5.13;;;4.40;;
78908;SDS011;68298;37.368;127.108;2023-05-24T15:16:46;6.65;;;4.63;;
78908;SDS011;68298;37.368;127.108;2023-05-24T15:19:17;5.80;;;4.60;;
78908;SDS011;68298;37.368;127.108;2023-05-24T15:21:48;13.80;;;4.65;;
78908;SDS011;68298;37.368;127.108;2023-05-24T15:24:18;5.13;;;3.92;;